createdAt,value
2022-07-26T00:00:32.199Z,33.50
2022-07-26T00:03:07.920Z,34.40
2022-07-26T00:05:41.765Z,35.10
2022-07-26T00:08:14.913Z,35.50
2022-07-26T00:10:50.904Z,36.00
2022-07-26T00:13:27.984Z,36.30
2022-07-26T00:16:04.409Z,35.90
2022-07-26T00:18:57.932Z,35.90
2022-07-26T00:21:36.314Z,35.40
2022-07-26T00:24:14.658Z,35.70
2022-07-26T00:26:48.452Z,36.50
2022-07-26T00:29:22.348Z,36.80
2022-07-26T00:31:58.308Z,36.70
2022-07-26T00:34:33.759Z,36.90
2022-07-26T00:37:07.705Z,37.20
2022-07-26T00:39:41.566Z,37.30
2022-07-26T00:42:15.431Z,37.60
2022-07-26T00:49:01.618Z,37.70
2022-07-26T00:51:37.362Z,38.40
2022-07-26T00:54:11.673Z,38.90
2022-07-26T00:56:45.541Z,38.90
2022-07-26T00:59:19.112Z,39.30
2022-07-26T01:01:53.737Z,39.90
2022-07-26T01:04:26.806Z,39.70
2022-07-26T01:07:02.564Z,38.20
2022-07-26T01:09:48.835Z,38.00
2022-07-26T01:12:24.415Z,37.00
2022-07-26T01:14:57.998Z,37.20
2022-07-26T01:17:32.097Z,37.60
2022-07-26T01:20:20.216Z,37.70
2022-07-26T01:22:57.106Z,37.50
2022-07-26T01:25:43.222Z,37.80
2022-07-26T01:28:41.137Z,38.30
2022-07-26T01:31:14.681Z,38.80
2022-07-26T01:33:48.675Z,39.00
2022-07-26T01:36:23.005Z,40.00
2022-07-26T01:38:59.967Z,40.50
2022-07-26T01:41:37.899Z,40.90
2022-07-26T01:44:13.087Z,40.00
2022-07-26T01:46:46.957Z,38.50
2022-07-26T01:49:20.382Z,38.10
2022-07-26T01:51:54.032Z,38.30
2022-07-26T01:54:30.058Z,38.70
2022-07-26T01:57:05.245Z,39.30
2022-07-26T01:59:38.638Z,37.80
2022-07-26T02:02:12.969Z,37.30
2022-07-26T02:05:02.037Z,37.40
2022-07-26T02:07:37.606Z,37.20
2022-07-26T02:10:16.318Z,37.20
2022-07-26T02:12:51.352Z,36.60
2022-07-26T02:15:24.593Z,36.70
2022-07-26T02:17:58.329Z,36.60
2022-07-26T02:20:41.491Z,36.90
2022-07-26T02:23:16.280Z,36.90
2022-07-26T02:25:52.544Z,36.60
2022-07-26T02:28:27.826Z,36.70
2022-07-26T02:31:02.549Z,36.80
2022-07-26T02:33:36.827Z,36.70
2022-07-26T02:36:10.829Z,36.80
2022-07-26T02:38:44.313Z,37.10
2022-07-26T02:41:20.378Z,37.30
2022-07-26T02:43:53.754Z,37.60
2022-07-26T02:46:27.977Z,37.20
2022-07-26T02:49:02.731Z,37.00
2022-07-26T02:51:37.122Z,37.00
2022-07-26T02:54:11.561Z,37.00
2022-07-26T02:56:47.435Z,37.40
2022-07-26T02:59:21.139Z,37.70
2022-07-26T03:01:55.031Z,38.80
2022-07-26T03:04:29.036Z,38.70
2022-07-26T03:07:02.839Z,38.40
2022-07-26T03:09:38.028Z,38.80
2022-07-26T03:12:13.959Z,38.10
2022-07-26T03:14:48.104Z,38.30
2022-07-26T03:17:22.220Z,38.00
2022-07-26T03:19:55.989Z,38.00
2022-07-26T03:22:30.256Z,37.60
2022-07-26T03:25:04.172Z,37.90
2022-07-26T03:27:39.375Z,38.20
2022-07-26T03:30:14.351Z,38.00
2022-07-26T03:32:49.382Z,38.00
2022-07-26T03:35:23.150Z,38.80
2022-07-26T03:37:57.326Z,38.70
2022-07-26T03:40:30.830Z,37.80
2022-07-26T03:43:06.477Z,37.90
2022-07-26T03:45:40.014Z,38.30
2022-07-26T03:48:13.807Z,38.50
2022-07-26T03:50:48.306Z,38.50
2022-07-26T03:53:23.573Z,38.60
2022-07-26T03:56:12.588Z,38.90
2022-07-26T03:58:49.216Z,38.50
2022-07-26T04:01:23.047Z,38.10
2022-07-26T04:03:57.934Z,38.00
2022-07-26T04:06:31.817Z,38.00
2022-07-26T04:09:05.458Z,37.80
2022-07-26T04:14:28.631Z,38.30
2022-07-26T04:17:05.988Z,38.30
2022-07-26T04:19:39.790Z,38.40
2022-07-26T04:22:14.093Z,38.30
2022-07-26T04:24:47.986Z,38.20
2022-07-26T04:27:21.868Z,37.00
2022-07-26T04:29:58.304Z,37.20
2022-07-26T04:32:32.100Z,37.30
2022-07-26T04:35:05.895Z,36.90
2022-07-26T04:37:44.940Z,36.70
2022-07-26T04:40:24.054Z,36.60
2022-07-26T04:43:01.734Z,36.80
2022-07-26T04:45:40.899Z,36.80
2022-07-26T04:48:17.835Z,37.10
2022-07-26T04:50:51.756Z,37.30
2022-07-26T04:53:26.083Z,37.30
2022-07-26T04:55:59.685Z,37.20
2022-07-26T04:58:34.044Z,37.00
2022-07-26T05:01:10.606Z,36.70
2022-07-26T05:06:33.787Z,36.40
2022-07-26T05:09:07.924Z,36.20
2022-07-26T05:11:42.276Z,36.60
2022-07-26T05:14:16.997Z,36.90
2022-07-26T05:16:53.257Z,36.90
2022-07-26T05:19:27.593Z,36.90
2022-07-26T05:22:01.400Z,36.90
2022-07-26T05:24:35.914Z,37.00
2022-07-26T05:27:09.767Z,36.90
2022-07-26T05:29:44.193Z,36.80
2022-07-26T05:32:20.429Z,37.10
2022-07-26T05:34:55.803Z,36.90
2022-07-26T05:37:30.848Z,37.30
2022-07-26T05:40:08.561Z,37.60
2022-07-26T05:42:44.780Z,37.60
2022-07-26T05:45:19.902Z,37.40
2022-07-26T05:47:57.958Z,37.20
2022-07-26T05:50:32.883Z,37.40
2022-07-26T05:53:08.393Z,37.40
2022-07-26T05:55:57.013Z,37.60
2022-07-26T05:58:32.053Z,37.40
2022-07-26T06:01:06.614Z,37.20
2022-07-26T06:03:43.210Z,37.00
2022-07-26T06:06:17.332Z,37.00
2022-07-26T06:08:52.007Z,37.30
2022-07-26T06:11:26.436Z,37.70
2022-07-26T06:14:01.462Z,37.90
2022-07-26T06:16:36.466Z,37.70
2022-07-26T06:19:13.525Z,37.80
2022-07-26T06:21:49.278Z,37.80
2022-07-26T06:24:26.173Z,37.70
2022-07-26T06:27:05.340Z,38.10
2022-07-26T06:29:41.857Z,37.70
2022-07-26T06:32:15.618Z,37.30
2022-07-26T06:34:52.006Z,37.30
2022-07-26T06:37:32.700Z,37.70
2022-07-26T06:40:07.311Z,37.40
2022-07-26T06:42:42.159Z,37.50
2022-07-26T06:45:17.040Z,37.50
2022-07-26T06:47:52.088Z,37.60
2022-07-26T06:50:29.106Z,37.60
2022-07-26T06:53:04.177Z,37.90
2022-07-26T06:55:38.138Z,37.70
2022-07-26T06:58:12.772Z,37.60
2022-07-26T07:00:47.301Z,37.90
2022-07-26T07:03:21.566Z,37.40
2022-07-26T07:05:58.501Z,37.70
2022-07-26T07:08:35.377Z,37.90
2022-07-26T07:11:10.171Z,38.30
2022-07-26T07:13:45.572Z,38.40
2022-07-26T07:16:29.032Z,38.00
2022-07-26T07:19:08.144Z,37.30
2022-07-26T07:21:46.236Z,36.90
2022-07-26T07:24:21.019Z,37.10
2022-07-26T07:26:55.797Z,37.10
2022-07-26T07:29:30.598Z,36.80
2022-07-26T07:32:05.157Z,37.00
2022-07-26T07:34:40.318Z,36.70
2022-07-26T07:37:17.967Z,36.80
2022-07-26T07:39:54.228Z,37.10
2022-07-26T07:42:31.094Z,37.10
2022-07-26T07:45:05.600Z,37.40
2022-07-26T07:47:40.979Z,37.90
2022-07-26T07:50:15.479Z,38.10
2022-07-26T07:52:54.806Z,38.10
2022-07-26T07:55:41.276Z,38.20
2022-07-26T07:58:24.175Z,38.20
2022-07-26T08:01:00.850Z,38.20
2022-07-26T08:03:38.533Z,38.20
2022-07-26T08:06:25.903Z,38.30
2022-07-26T08:09:07.038Z,38.30
2022-07-26T08:11:41.998Z,38.20
2022-07-26T08:14:17.189Z,38.10
2022-07-26T08:16:52.523Z,38.00
2022-07-26T08:19:29.799Z,37.90
2022-07-26T08:22:16.363Z,38.10
2022-07-26T08:24:53.994Z,38.20
2022-07-26T08:27:28.072Z,38.40
2022-07-26T08:30:02.263Z,38.60
2022-07-26T08:32:36.823Z,38.60
2022-07-26T08:35:19.570Z,37.80
2022-07-26T08:37:55.873Z,37.70
2022-07-26T08:40:35.068Z,37.70
2022-07-26T08:43:10.790Z,37.90
2022-07-26T08:45:47.422Z,38.10
2022-07-26T08:48:22.876Z,37.90
2022-07-26T08:50:56.843Z,37.50
2022-07-26T08:53:33.906Z,37.30
2022-07-26T08:56:10.502Z,37.20
2022-07-26T08:58:44.795Z,37.00
2022-07-26T09:01:19.176Z,36.90
2022-07-26T09:03:53.699Z,36.80
2022-07-26T09:06:28.700Z,36.90
2022-07-26T09:09:24.358Z,36.80
2022-07-26T09:12:02.895Z,36.70
2022-07-26T09:14:45.843Z,37.00
2022-07-26T09:17:21.098Z,37.20
2022-07-26T09:20:15.162Z,37.20
2022-07-26T09:23:06.841Z,37.00
2022-07-26T09:25:42.242Z,37.00
2022-07-26T09:28:29.824Z,37.10
2022-07-26T09:31:05.446Z,37.30
2022-07-26T09:33:50.710Z,37.40
2022-07-26T09:36:25.144Z,37.50
2022-07-26T09:39:02.678Z,37.50
2022-07-26T09:41:44.521Z,37.50
2022-07-26T09:44:28.830Z,37.40
2022-07-26T09:47:03.797Z,37.30
2022-07-26T09:49:41.916Z,37.40
2022-07-26T09:52:21.464Z,37.40
2022-07-26T09:54:55.993Z,37.30
2022-07-26T09:57:29.849Z,37.20
2022-07-26T10:00:07.670Z,37.20
2022-07-26T10:02:43.737Z,36.70
2022-07-26T10:05:18.317Z,36.30
2022-07-26T10:07:55.065Z,36.10
2022-07-26T10:10:33.199Z,36.00
2022-07-26T10:13:09.122Z,35.80
2022-07-26T10:16:00.844Z,35.80
2022-07-26T10:18:51.576Z,35.80
2022-07-26T10:21:27.629Z,35.70
2022-07-26T10:24:02.928Z,35.80
2022-07-26T10:26:50.439Z,35.80
2022-07-26T10:29:33.589Z,35.80
2022-07-26T10:32:28.120Z,35.80
2022-07-26T10:35:03.091Z,35.60
2022-07-26T10:37:38.691Z,35.50
2022-07-26T10:41:00.138Z,35.40
2022-07-26T10:43:42.420Z,35.40
2022-07-26T10:46:32.219Z,35.40
2022-07-26T10:49:54.944Z,35.30
2022-07-26T10:52:37.677Z,35.30
2022-07-26T10:55:15.053Z,35.30
2022-07-26T10:57:51.005Z,35.30
2022-07-26T11:00:29.966Z,35.20
2022-07-26T11:03:06.059Z,35.10
2022-07-26T11:05:43.473Z,35.10
2022-07-26T11:08:42.404Z,35.10
2022-07-26T11:11:31.702Z,35.00
2022-07-26T11:14:13.290Z,35.00
2022-07-26T11:16:49.461Z,35.00
2022-07-26T11:19:24.896Z,34.90
2022-07-26T11:22:03.227Z,35.00
2022-07-26T11:24:43.449Z,34.90
2022-07-26T11:27:39.255Z,34.90
2022-07-26T11:30:15.543Z,34.90
2022-07-26T11:33:00.254Z,34.90
2022-07-26T11:35:37.151Z,34.90
2022-07-26T11:38:13.930Z,34.90
2022-07-26T11:40:49.621Z,34.90
2022-07-26T11:43:24.140Z,35.00
2022-07-26T11:45:58.108Z,35.00
2022-07-26T11:48:33.984Z,35.00
2022-07-26T11:51:18.221Z,35.10
2022-07-26T11:54:01.387Z,34.80
2022-07-26T11:56:38.685Z,34.80
2022-07-26T11:59:18.470Z,34.80
2022-07-26T12:01:54.192Z,34.70
2022-07-26T12:04:30.218Z,34.70
2022-07-26T12:07:06.279Z,34.80
2022-07-26T12:09:43.004Z,34.80
2022-07-26T12:12:25.638Z,34.70
2022-07-26T12:15:05.610Z,34.60
2022-07-26T12:17:40.151Z,34.60
2022-07-26T12:20:18.694Z,34.50
2022-07-26T12:22:59.590Z,34.40
2022-07-26T12:25:45.160Z,34.40
2022-07-26T12:28:48.532Z,34.40
2022-07-26T12:31:48.139Z,34.30
2022-07-26T12:34:29.948Z,34.40
2022-07-26T12:37:40.591Z,34.50
2022-07-26T12:40:18.008Z,34.50
2022-07-26T12:43:03.428Z,34.60
2022-07-26T12:45:41.903Z,34.60
2022-07-26T12:48:15.635Z,34.60
2022-07-26T12:50:49.704Z,34.60
2022-07-26T12:53:24.238Z,34.50
2022-07-26T12:55:58.755Z,34.50
2022-07-26T12:58:34.722Z,34.60
2022-07-26T13:01:08.929Z,34.50
2022-07-26T13:03:43.417Z,34.40
2022-07-26T13:06:17.861Z,34.40
2022-07-26T13:09:16.714Z,34.40
2022-07-26T13:11:53.991Z,34.40
2022-07-26T13:14:37.406Z,34.50
2022-07-26T13:17:13.073Z,34.40
2022-07-26T13:19:49.661Z,34.40
2022-07-26T13:22:23.460Z,34.30
2022-07-26T13:24:57.381Z,34.30
2022-07-26T13:27:36.153Z,34.40
2022-07-26T13:30:15.712Z,34.40
2022-07-26T13:32:50.312Z,34.30
2022-07-26T13:35:24.248Z,34.30
2022-07-26T13:38:04.055Z,34.20
2022-07-26T13:40:52.095Z,34.20
2022-07-26T13:43:27.176Z,34.30
2022-07-26T13:46:04.014Z,34.40
2022-07-26T13:48:47.876Z,34.20
2022-07-26T13:51:45.789Z,34.20
2022-07-26T13:54:23.276Z,34.10
2022-07-26T13:57:49.098Z,34.20
2022-07-26T14:00:23.816Z,34.20
2022-07-26T14:03:01.499Z,34.10
2022-07-26T14:05:59.008Z,34.10
2022-07-26T14:08:33.301Z,34.00
2022-07-26T14:11:07.311Z,34.10
2022-07-26T14:13:43.460Z,34.10
2022-07-26T14:16:20.165Z,34.00
2022-07-26T14:18:58.175Z,34.00
2022-07-26T14:21:38.609Z,33.90
2022-07-26T14:24:23.790Z,33.90
2022-07-26T14:29:49.042Z,34.00
2022-07-26T14:32:22.847Z,33.90
2022-07-26T14:35:01.270Z,33.80
2022-07-26T14:37:44.158Z,33.80
2022-07-26T14:40:20.869Z,33.90
2022-07-26T14:42:55.740Z,34.00
2022-07-26T14:45:30.460Z,33.90
2022-07-26T14:48:07.493Z,33.80
2022-07-26T14:51:09.286Z,33.70
2022-07-26T14:53:43.594Z,33.70
2022-07-26T14:56:18.438Z,33.70
2022-07-26T14:59:06.298Z,33.60
2022-07-26T15:01:41.041Z,33.40
2022-07-26T15:04:18.179Z,33.30
2022-07-26T15:06:54.702Z,33.40
2022-07-26T15:09:28.975Z,33.40
2022-07-26T15:12:03.237Z,33.30
2022-07-26T15:14:37.388Z,33.30
2022-07-26T15:17:11.687Z,33.30
2022-07-26T15:19:45.963Z,33.30
2022-07-26T15:22:27.611Z,33.40
2022-07-26T15:25:01.367Z,33.40
2022-07-26T15:27:34.948Z,33.30
2022-07-26T15:30:14.822Z,33.20
2022-07-26T15:32:50.082Z,33.20
2022-07-26T15:35:23.962Z,33.20
2022-07-26T15:38:00.682Z,33.10
2022-07-26T15:40:35.039Z,33.10
2022-07-26T15:43:12.428Z,33.00
2022-07-26T15:45:46.978Z,33.00
2022-07-26T15:48:25.399Z,33.00
2022-07-26T15:51:23.880Z,33.00
2022-07-26T15:54:00.581Z,33.00
2022-07-26T15:56:37.011Z,32.90
2022-07-26T15:59:12.492Z,32.90
2022-07-26T16:01:46.856Z,32.90
2022-07-26T16:04:21.953Z,32.90
2022-07-26T16:06:56.136Z,32.90
2022-07-26T16:09:32.061Z,32.80
2022-07-26T16:12:06.261Z,32.80
2022-07-26T16:14:42.442Z,32.80
2022-07-26T16:17:22.804Z,32.80
2022-07-26T16:20:05.176Z,32.80
2022-07-26T16:22:43.392Z,32.70
2022-07-26T16:28:06.011Z,32.20
2022-07-26T16:30:43.128Z,32.20
2022-07-26T16:33:17.487Z,32.10
2022-07-26T16:35:54.309Z,32.10
2022-07-26T16:38:28.451Z,32.10
2022-07-26T16:41:26.065Z,32.20
2022-07-26T16:43:59.906Z,32.20
2022-07-26T16:46:34.559Z,32.10
2022-07-26T16:49:09.414Z,32.10
2022-07-26T16:51:49.454Z,32.10
2022-07-26T16:54:23.565Z,32.00
2022-07-26T16:57:00.291Z,32.00
2022-07-26T16:59:36.075Z,32.00
2022-07-26T17:02:10.359Z,31.90
2022-07-26T17:04:44.712Z,31.90
2022-07-26T17:07:26.473Z,31.80
2022-07-26T17:10:18.446Z,31.80
2022-07-26T17:13:19.749Z,31.70
2022-07-26T17:15:53.637Z,31.80
2022-07-26T17:18:27.804Z,31.80
2022-07-26T17:21:03.722Z,31.80
2022-07-26T17:23:38.058Z,31.80
2022-07-26T17:26:15.321Z,31.70
2022-07-26T17:28:51.949Z,31.70
2022-07-26T17:31:26.080Z,31.70
2022-07-26T17:34:00.997Z,31.70
2022-07-26T17:36:37.183Z,31.70
2022-07-26T17:39:14.861Z,31.70
2022-07-26T17:41:55.114Z,31.80
2022-07-26T17:44:31.539Z,31.80
2022-07-26T17:47:28.803Z,31.70
2022-07-26T17:52:59.521Z,31.70
2022-07-26T17:55:34.324Z,31.60
2022-07-26T17:58:08.484Z,31.70
2022-07-26T18:00:45.010Z,31.60
2022-07-26T18:03:18.998Z,31.60
2022-07-26T18:06:23.451Z,31.60
2022-07-26T18:08:57.539Z,31.50
2022-07-26T18:11:31.612Z,31.50
2022-07-26T18:14:05.925Z,31.60
2022-07-26T18:16:54.452Z,31.50
2022-07-26T18:19:31.135Z,31.40
2022-07-26T18:22:07.409Z,31.40
2022-07-26T18:24:41.391Z,31.30
2022-07-26T18:27:14.725Z,31.30
2022-07-26T18:29:48.471Z,31.30
2022-07-26T18:32:26.281Z,31.30
2022-07-26T18:35:00.691Z,31.20
2022-07-26T18:37:34.746Z,31.30
2022-07-26T18:40:09.507Z,31.30
2022-07-26T18:42:44.061Z,31.30
2022-07-26T18:45:18.069Z,31.30
2022-07-26T18:47:54.013Z,31.30
2022-07-26T18:50:37.095Z,31.40
2022-07-26T18:53:11.310Z,31.30
2022-07-26T18:55:44.969Z,31.20
2022-07-26T18:58:20.363Z,31.30
2022-07-26T19:00:59.376Z,31.40
2022-07-26T19:03:36.188Z,31.40
2022-07-26T19:06:10.313Z,31.50
2022-07-26T19:08:44.454Z,31.50
2022-07-26T19:11:18.387Z,31.70
2022-07-26T19:13:51.850Z,31.80
2022-07-26T19:16:26.047Z,31.80
2022-07-26T19:19:01.371Z,31.70
2022-07-26T19:21:34.416Z,31.80
2022-07-26T19:24:27.830Z,31.80
2022-07-26T19:27:02.664Z,31.80
2022-07-26T19:29:36.690Z,31.80
2022-07-26T19:32:10.467Z,31.60
2022-07-26T19:34:45.498Z,31.50
2022-07-26T19:37:22.228Z,31.20
2022-07-26T19:40:01.679Z,31.00
2022-07-26T19:42:36.033Z,30.90
2022-07-26T19:45:23.212Z,31.10
2022-07-26T19:47:57.069Z,31.10
2022-07-26T19:50:32.703Z,31.30
2022-07-26T19:53:06.994Z,31.30
2022-07-26T19:55:42.391Z,31.20
2022-07-26T19:58:16.021Z,31.20
2022-07-26T20:00:49.566Z,31.20
2022-07-26T20:03:23.101Z,31.20
2022-07-26T20:05:59.203Z,31.10
2022-07-26T20:08:33.659Z,31.00
2022-07-26T20:11:28.998Z,31.00
2022-07-26T20:14:02.779Z,30.90
2022-07-26T20:16:35.404Z,30.80
2022-07-26T20:19:29.750Z,30.70
2022-07-26T20:22:06.918Z,30.60
2022-07-26T20:24:42.473Z,30.40
2022-07-26T20:27:16.694Z,30.40
2022-07-26T20:29:50.694Z,30.40
2022-07-26T20:32:24.362Z,30.40
2022-07-26T20:34:58.386Z,30.40
2022-07-26T20:37:34.283Z,30.40
2022-07-26T20:40:09.280Z,30.30
2022-07-26T20:42:47.630Z,30.30
2022-07-26T20:45:25.155Z,30.30
2022-07-26T20:48:01.941Z,30.20
2022-07-26T20:50:55.606Z,30.20
2022-07-26T20:53:31.393Z,30.20
2022-07-26T20:56:06.165Z,30.10
2022-07-26T20:58:40.019Z,30.20
2022-07-26T21:01:14.624Z,30.20
2022-07-26T21:03:48.687Z,30.30
2022-07-26T21:06:22.332Z,30.30
2022-07-26T21:09:01.126Z,30.40
2022-07-26T21:11:43.695Z,30.40
2022-07-26T21:14:38.771Z,30.20
2022-07-26T21:17:13.051Z,30.20
2022-07-26T21:19:47.099Z,30.40
2022-07-26T21:22:23.394Z,30.40
2022-07-26T21:24:58.950Z,30.40
2022-07-26T21:27:33.024Z,30.50
2022-07-26T21:30:06.704Z,30.20
2022-07-26T21:32:40.641Z,30.10
2022-07-26T21:35:14.920Z,30.00
2022-07-26T21:37:48.588Z,29.90
2022-07-26T21:40:24.019Z,30.00
2022-07-26T21:42:58.009Z,30.00
2022-07-26T21:45:54.065Z,29.90
2022-07-26T21:48:28.894Z,29.70
2022-07-26T21:51:02.916Z,29.70
2022-07-26T21:53:56.629Z,29.60
2022-07-26T21:56:33.263Z,29.60
2022-07-26T21:59:06.697Z,29.50
2022-07-26T22:01:40.516Z,29.40
2022-07-26T22:04:26.748Z,29.30
2022-07-26T22:07:00.710Z,29.20
2022-07-26T22:09:34.217Z,29.10
2022-07-26T22:12:10.271Z,28.70
2022-07-26T22:14:44.479Z,28.50
2022-07-26T22:17:18.413Z,28.10
2022-07-26T22:19:51.832Z,27.90
2022-07-26T22:22:25.394Z,27.80
2022-07-26T22:24:59.359Z,27.70
2022-07-26T22:27:34.673Z,27.70
2022-07-26T22:30:09.448Z,27.50
2022-07-26T22:32:43.454Z,27.60
2022-07-26T22:35:17.708Z,27.40
2022-07-26T22:37:50.827Z,27.30
2022-07-26T22:40:24.856Z,27.40
2022-07-26T22:43:01.488Z,27.60
2022-07-26T22:45:56.777Z,27.80
2022-07-26T22:48:34.742Z,28.00
2022-07-26T22:51:10.410Z,28.00
2022-07-26T22:53:44.773Z,28.00
2022-07-26T22:56:19.938Z,28.10
2022-07-26T22:58:56.543Z,28.20
2022-07-26T23:01:32.190Z,28.20
2022-07-26T23:04:06.436Z,28.20
2022-07-26T23:06:41.621Z,28.10
2022-07-26T23:09:16.217Z,27.90
2022-07-26T23:11:49.805Z,27.80
2022-07-26T23:14:24.766Z,27.90
2022-07-26T23:17:18.077Z,27.60
2022-07-26T23:19:51.257Z,27.50
2022-07-26T23:22:24.826Z,27.50
2022-07-26T23:24:59.244Z,27.50
2022-07-26T23:27:32.927Z,27.50
2022-07-26T23:30:08.998Z,27.60
2022-07-26T23:33:02.600Z,27.60
2022-07-26T23:35:35.782Z,27.70
2022-07-26T23:38:09.688Z,27.70
2022-07-26T23:40:43.189Z,27.80
2022-07-26T23:43:18.475Z,27.80
2022-07-26T23:45:53.409Z,27.90
2022-07-26T23:48:26.908Z,27.80
2022-07-26T23:51:01.893Z,28.00
2022-07-26T23:53:50.716Z,28.10
2022-07-26T23:56:24.307Z,28.50
2022-07-26T23:58:58.678Z,28.50
